Time;durP1;ratioP1;P1;durP2;ratioP2;P2;SDS_P1;SDS_P2;PMS_P1;PMS_P2;Temp;Humidity;BMP_temperature;BMP_pressure;BME280_temperature;BME280_humidity;BME280_pressure;Samples;Min_cycle;Max_cycle;Signal;HPM_P1;HPM_P2
2022/02/14 00:01:30;;;;;;;45.85;16.80;;;;;;;;;;4952413;28;20379;-61
2022/02/14 00:03:55;;;;;;;45.08;16.55;;;;;;;;;;4952509;28;20329;-62
2022/02/14 00:06:20;;;;;;;38.53;15.23;;;;;;;;;;4952212;28;20457;-61
2022/02/14 00:08:46;;;;;;;42.50;14.35;;;;;;;;;;4953582;28;20034;-61
2022/02/14 00:11:12;;;;;;;37.42;15.00;;;;;;;;;;4951553;28;20365;-61
2022/02/14 00:13:37;;;;;;;39.15;14.27;;;;;;;;;;4952203;28;20511;-62
2022/02/14 00:16:03;;;;;;;39.15;14.43;;;;;;;;;;4952242;28;20434;-61
2022/02/14 00:18:28;;;;;;;38.75;14.00;;;;;;;;;;4952026;28;20030;-61
2022/02/14 00:20:53;;;;;;;37.33;13.60;;;;;;;;;;4953388;28;20406;-59
2022/02/14 00:23:19;;;;;;;42.35;13.80;;;;;;;;;;4952938;28;20509;-59
2022/02/14 00:25:44;;;;;;;36.58;14.05;;;;;;;;;;4952726;28;20405;-59
2022/02/14 00:28:09;;;;;;;38.22;13.98;;;;;;;;;;4952709;28;20383;-59
2022/02/14 00:30:35;;;;;;;38.53;13.32;;;;;;;;;;4952104;28;20386;-59
2022/02/14 00:33:00;;;;;;;35.95;14.02;;;;;;;;;;4951690;28;20452;-59
2022/02/14 00:35:26;;;;;;;33.28;13.23;;;;;;;;;;4951439;28;20030;-59
2022/02/14 00:37:53;;;;;;;32.35;13.27;;;;;;;;;;4951860;28;20440;-59
2022/02/14 00:40:18;;;;;;;29.65;13.40;;;;;;;;;;4951838;28;20091;-59
2022/02/14 00:42:45;;;;;;;32.72;12.85;;;;;;;;;;4951581;28;20026;-59
2022/02/14 00:45:10;;;;;;;34.97;13.25;;;;;;;;;;4951909;28;20441;-59
2022/02/14 00:47:36;;;;;;;37.95;13.13;;;;;;;;;;4952282;28;20540;-59
2022/02/14 00:50:01;;;;;;;36.03;12.68;;;;;;;;;;4934116;28;20456;-59
2022/02/14 00:52:27;;;;;;;34.08;12.77;;;;;;;;;;4952067;28;20527;-59
2022/02/14 00:54:57;;;;;;;30.75;11.50;;;;;;;;;;4951437;28;20413;-59
2022/02/14 00:57:26;;;;;;;29.52;11.95;;;;;;;;;;4951146;28;20441;-59
2022/02/14 00:59:51;;;;;;;29.65;11.00;;;;;;;;;;4949743;28;20413;-59
2022/02/14 01:02:16;;;;;;;32.35;10.95;;;;;;;;;;4942894;28;20356;-59
2022/02/14 01:04:42;;;;;;;31.92;11.90;;;;;;;;;;4932108;28;20380;-59
2022/02/14 01:07:07;;;;;;;30.75;11.02;;;;;;;;;;4931946;28;20030;-59
2022/02/14 01:09:33;;;;;;;26.17;11.00;;;;;;;;;;4931359;28;20030;-59
2022/02/14 01:11:58;;;;;;;26.52;11.13;;;;;;;;;;4932310;28;20414;-59
2022/02/14 01:14:23;;;;;;;26.58;11.18;;;;;;;;;;4931891;28;20416;-59
2022/02/14 01:16:49;;;;;;;31.45;11.82;;;;;;;;;;4931554;28;20396;-58
2022/02/14 01:19:14;;;;;;;26.50;10.73;;;;;;;;;;4932206;28;20030;-59
2022/02/14 01:21:40;;;;;;;32.33;10.77;;;;;;;;;;4931297;28;20419;-59
2022/02/14 01:24:05;;;;;;;26.15;9.90;;;;;;;;;;4932480;28;20496;-58
2022/02/14 01:26:30;;;;;;;26.17;10.38;;;;;;;;;;4931578;28;20341;-59
2022/02/14 01:28:56;;;;;;;26.35;10.05;;;;;;;;;;4931731;28;20405;-59
2022/02/14 01:31:22;;;;;;;29.63;10.00;;;;;;;;;;4931499;28;20449;-59
2022/02/14 01:33:47;;;;;;;29.70;10.13;;;;;;;;;;4930122;28;20424;-59
2022/02/14 01:36:12;;;;;;;22.75;9.98;;;;;;;;;;4931036;28;20342;-59
2022/02/14 01:38:38;;;;;;;23.58;10.10;;;;;;;;;;4931393;28;20345;-59
2022/02/14 01:41:03;;;;;;;21.30;9.05;;;;;;;;;;4932671;28;20413;-59
2022/02/14 01:43:28;;;;;;;24.65;9.45;;;;;;;;;;4931053;28;20092;-59
2022/02/14 01:45:54;;;;;;;23.65;9.35;;;;;;;;;;4931691;28;20117;-59
2022/02/14 01:48:19;;;;;;;25.58;8.98;;;;;;;;;;4931077;28;20349;-59
2022/02/14 01:50:46;;;;;;;26.33;9.90;;;;;;;;;;4931221;28;20325;-59
2022/02/14 01:53:11;;;;;;;27.67;10.50;;;;;;;;;;4930701;28;20437;-59
2022/02/14 01:55:37;;;;;;;27.92;9.23;;;;;;;;;;4931085;28;20464;-59
2022/02/14 01:58:04;;;;;;;29.73;10.10;;;;;;;;;;4931358;28;20018;-59
2022/02/14 02:00:29;;;;;;;25.33;9.63;;;;;;;;;;4932093;28;20322;-59
2022/02/14 02:02:56;;;;;;;24.60;9.57;;;;;;;;;;4931017;28;20329;-60
2022/02/14 02:05:21;;;;;;;27.85;9.52;;;;;;;;;;4930965;28;20491;-59
2022/02/14 02:07:47;;;;;;;23.02;8.77;;;;;;;;;;4913934;28;20484;-60
2022/02/14 02:10:13;;;;;;;24.52;9.57;;;;;;;;;;4930484;28;20437;-59
2022/02/14 02:12:47;;;;;;;21.33;8.45;;;;;;;;;;4931064;28;20348;-59
2022/02/14 02:15:13;;;;;;;23.23;9.35;;;;;;;;;;4930751;28;20435;-59
2022/02/14 02:17:38;;;;;;;24.10;9.00;;;;;;;;;;4930394;28;20034;-59
2022/02/14 02:20:06;;;;;;;24.90;9.35;;;;;;;;;;4931692;28;20436;-60
2022/02/14 02:22:32;;;;;;;27.50;9.65;;;;;;;;;;4930593;28;20440;-59
2022/02/14 02:24:57;;;;;;;27.50;9.10;;;;;;;;;;4930371;28;20105;-59
2022/02/14 02:27:25;;;;;;;21.73;9.35;;;;;;;;;;4930675;28;20468;-59
2022/02/14 02:30:01;;;;;;;23.70;10.23;;;;;;;;;;4931049;28;20400;-59
2022/02/14 02:32:29;;;;;;;23.35;9.20;;;;;;;;;;4930403;28;20488;-59
2022/02/14 02:34:54;;;;;;;24.63;9.00;;;;;;;;;;4930619;28;20602;-59
2022/02/14 02:37:20;;;;;;;23.20;7.82;;;;;;;;;;4929881;28;20428;-60
2022/02/14 02:39:46;;;;;;;25.25;8.98;;;;;;;;;;4930545;28;20330;-59
2022/02/14 02:42:13;;;;;;;24.90;9.77;;;;;;;;;;4930608;28;20064;-61
2022/02/14 02:44:39;;;;;;;25.42;8.82;;;;;;;;;;4930400;28;20112;-59
2022/02/14 02:47:07;;;;;;;23.70;8.43;;;;;;;;;;4930488;28;20034;-59
2022/02/14 02:49:33;;;;;;;20.60;8.80;;;;;;;;;;4930586;28;20034;-59
2022/02/14 02:51:59;;;;;;;21.45;9.18;;;;;;;;;;4930293;28;20372;-59
2022/02/14 02:54:25;;;;;;;19.95;9.60;;;;;;;;;;4930336;28;20373;-59
2022/02/14 02:56:53;;;;;;;24.35;9.73;;;;;;;;;;4930367;28;20097;-59
2022/02/14 02:59:19;;;;;;;21.70;8.75;;;;;;;;;;4929966;28;20437;-60
2022/02/14 03:01:44;;;;;;;23.02;9.20;;;;;;;;;;4930283;28;20038;-59
2022/02/14 03:04:11;;;;;;;23.05;9.32;;;;;;;;;;4929828;28;20511;-59
2022/02/14 03:06:38;;;;;;;26.25;9.30;;;;;;;;;;4930118;28;20472;-59
2022/02/14 03:09:04;;;;;;;31.02;11.25;;;;;;;;;;4930425;28;20456;-59
2022/02/14 03:11:29;;;;;;;25.30;8.90;;;;;;;;;;4929909;28;20434;-60
2022/02/14 03:13:55;;;;;;;23.05;8.90;;;;;;;;;;4929745;28;20491;-59
2022/02/14 03:16:20;;;;;;;21.73;9.40;;;;;;;;;;4929966;28;20023;-59
2022/02/14 03:18:46;;;;;;;22.50;8.65;;;;;;;;;;4931221;28;20499;-59
2022/02/14 03:21:12;;;;;;;23.20;9.02;;;;;;;;;;4930000;28;20381;-59
2022/02/14 03:23:38;;;;;;;29.67;8.98;;;;;;;;;;4930341;28;20500;-59
2022/02/14 03:26:04;;;;;;;26.88;9.07;;;;;;;;;;4929921;28;20062;-59
2022/02/14 03:28:29;;;;;;;25.33;9.15;;;;;;;;;;4931884;28;20386;-59
2022/02/14 03:30:55;;;;;;;23.52;10.02;;;;;;;;;;4930396;28;20417;-59
2022/02/14 03:33:21;;;;;;;26.10;9.75;;;;;;;;;;4931339;28;20448;-59
2022/02/14 03:35:47;;;;;;;22.58;9.10;;;;;;;;;;4933216;28;20082;-59
2022/02/14 03:38:13;;;;;;;24.20;8.52;;;;;;;;;;4933294;28;20022;-59
2022/02/14 03:40:38;;;;;;;23.45;9.02;;;;;;;;;;4933783;28;20392;-59
2022/02/14 03:43:06;;;;;;;22.83;9.48;;;;;;;;;;4934006;28;20038;-59
2022/02/14 03:45:32;;;;;;;24.23;8.95;;;;;;;;;;4933496;28;20430;-59
2022/02/14 03:47:57;;;;;;;25.25;9.68;;;;;;;;;;4933104;28;20026;-59
2022/02/14 03:50:23;;;;;;;19.90;8.73;;;;;;;;;;4933660;28;20437;-59
2022/02/14 03:52:49;;;;;;;21.85;8.93;;;;;;;;;;4933466;28;20491;-59
2022/02/14 03:55:14;;;;;;;23.52;9.07;;;;;;;;;;4932906;28;20409;-60
2022/02/14 03:57:41;;;;;;;21.02;9.02;;;;;;;;;;4916729;28;20325;-60
2022/02/14 04:00:08;;;;;;;27.65;9.93;;;;;;;;;;4933448;28;20392;-59
2022/02/14 04:02:35;;;;;;;23.00;8.77;;;;;;;;;;4933799;28;20403;-59
2022/02/14 04:05:00;;;;;;;22.67;9.10;;;;;;;;;;4933948;28;20344;-59
2022/02/14 04:07:26;;;;;;;19.92;7.68;;;;;;;;;;4932904;28;20349;-59
2022/02/14 04:09:51;;;;;;;24.95;8.93;;;;;;;;;;4933404;28;20515;-59
2022/02/14 04:12:16;;;;;;;20.85;8.18;;;;;;;;;;4933248;28;20038;-59
2022/02/14 04:14:42;;;;;;;23.08;8.82;;;;;;;;;;4932906;28;20450;-59
2022/02/14 04:17:07;;;;;;;23.80;9.27;;;;;;;;;;4932758;28;20621;-59
2022/02/14 04:19:32;;;;;;;20.95;8.40;;;;;;;;;;4932590;28;20433;-60
2022/02/14 04:21:57;;;;;;;28.30;9.23;;;;;;;;;;4933434;28;20443;-59
2022/02/14 04:24:23;;;;;;;21.20;8.90;;;;;;;;;;4932844;28;20511;-59
2022/02/14 04:26:48;;;;;;;26.77;10.95;;;;;;;;;;4932932;28;20326;-59
2022/02/14 04:29:13;;;;;;;23.45;9.27;;;;;;;;;;4933596;28;20345;-59
2022/02/14 04:31:39;;;;;;;24.40;10.10;;;;;;;;;;4932556;28;20393;-59
2022/02/14 04:34:04;;;;;;;23.42;9.35;;;;;;;;;;4932524;28;20393;-59
2022/02/14 04:36:29;;;;;;;30.73;9.80;;;;;;;;;;4932721;28;20463;-59
2022/02/14 04:38:55;;;;;;;28.15;10.82;;;;;;;;;;4932583;28;20034;-59
2022/02/14 04:41:20;;;;;;;24.98;9.38;;;;;;;;;;4932885;28;20353;-59
2022/02/14 04:43:45;;;;;;;23.77;9.48;;;;;;;;;;4932222;28;20369;-59
2022/02/14 04:46:11;;;;;;;24.67;9.93;;;;;;;;;;4931239;28;20380;-59
2022/02/14 04:48:36;;;;;;;30.48;9.98;;;;;;;;;;4933058;28;20128;-59
2022/02/14 04:51:01;;;;;;;29.00;10.52;;;;;;;;;;4932280;28;20436;-59
2022/02/14 04:53:27;;;;;;;28.90;10.45;;;;;;;;;;4932407;28;20455;-59
2022/02/14 04:55:52;;;;;;;26.95;9.75;;;;;;;;;;4932331;28;20295;-61
2022/02/14 04:58:17;;;;;;;24.35;11.27;;;;;;;;;;4932085;28;20454;-59
2022/02/14 05:00:43;;;;;;;30.67;9.93;;;;;;;;;;4932260;28;20420;-59
2022/02/14 05:03:08;;;;;;;24.85;9.32;;;;;;;;;;4932353;28;20046;-59
2022/02/14 05:05:33;;;;;;;27.52;10.13;;;;;;;;;;4933483;28;20392;-59
2022/02/14 05:07:58;;;;;;;28.83;10.20;;;;;;;;;;4931926;28;20467;-59
2022/02/14 05:10:24;;;;;;;28.35;10.13;;;;;;;;;;4931872;28;20409;-59
2022/02/14 05:12:49;;;;;;;31.77;11.00;;;;;;;;;;4932516;28;20440;-60
2022/02/14 05:15:15;;;;;;;24.98;10.48;;;;;;;;;;4931703;28;20089;-60
2022/02/14 05:17:41;;;;;;;26.45;10.25;;;;;;;;;;4932365;28;20034;-59
2022/02/14 05:20:07;;;;;;;27.90;9.68;;;;;;;;;;4931541;28;20519;-59
2022/02/14 05:22:32;;;;;;;32.97;11.30;;;;;;;;;;4931964;28;20471;-59
2022/02/14 05:24:57;;;;;;;28.55;10.27;;;;;;;;;;4931609;28;20038;-59
2022/02/14 05:27:23;;;;;;;27.20;10.32;;;;;;;;;;4931233;28;20498;-59
2022/02/14 05:29:49;;;;;;;26.45;9.75;;;;;;;;;;4932362;28;20353;-60
2022/02/14 05:32:14;;;;;;;25.75;10.00;;;;;;;;;;4915328;28;20330;-58
2022/02/14 05:34:40;;;;;;;27.40;10.82;;;;;;;;;;4931513;28;20414;-59
2022/02/14 05:37:05;;;;;;;28.17;11.20;;;;;;;;;;4931333;28;20666;-59
2022/02/14 05:39:30;;;;;;;27.15;10.35;;;;;;;;;;4931444;28;20379;-59
2022/02/14 05:41:56;;;;;;;31.08;11.88;;;;;;;;;;4930752;28;20353;-59
2022/02/14 05:44:22;;;;;;;31.73;11.93;;;;;;;;;;4931304;28;20095;-59
2022/02/14 05:46:47;;;;;;;24.60;11.80;;;;;;;;;;4930891;28;20108;-59
2022/02/14 05:49:13;;;;;;;28.00;12.18;;;;;;;;;;4931169;28;20434;-59
2022/02/14 05:51:39;;;;;;;29.17;11.75;;;;;;;;;;4932315;28;20306;-59
2022/02/14 05:54:05;;;;;;;28.08;11.65;;;;;;;;;;4931958;28;20365;-59
2022/02/14 05:56:30;;;;;;;30.52;12.60;;;;;;;;;;4930840;28;20026;-59
2022/02/14 05:58:56;;;;;;;29.00;11.40;;;;;;;;;;4931172;28;20500;-59
2022/02/14 06:01:21;;;;;;;38.88;13.93;;;;;;;;;;4931306;28;20360;-59
2022/02/14 06:03:46;;;;;;;31.83;12.25;;;;;;;;;;4931581;28;20126;-59
2022/02/14 06:06:12;;;;;;;33.03;14.35;;;;;;;;;;4930810;28;20403;-59
2022/02/14 06:08:37;;;;;;;36.70;14.23;;;;;;;;;;4931017;28;20456;-59
2022/02/14 06:11:02;;;;;;;35.72;14.00;;;;;;;;;;4931232;28;20361;-59
2022/02/14 06:13:28;;;;;;;35.35;13.13;;;;;;;;;;4930491;28;20441;-59
2022/02/14 06:15:53;;;;;;;37.70;14.60;;;;;;;;;;4930906;28;20365;-60
2022/02/14 06:18:19;;;;;;;33.95;13.15;;;;;;;;;;4931066;28;20408;-59
2022/02/14 06:20:44;;;;;;;35.20;13.73;;;;;;;;;;4931731;28;20121;-59
2022/02/14 06:23:11;;;;;;;36.33;11.98;;;;;;;;;;4931023;28;20321;-58
2022/02/14 06:25:37;;;;;;;36.90;14.63;;;;;;;;;;4930473;28;20480;-60
2022/02/14 06:28:03;;;;;;;30.83;13.40;;;;;;;;;;4930363;28;20381;-59
2022/02/14 06:30:28;;;;;;;33.97;13.82;;;;;;;;;;4931742;28;20038;-59
2022/02/14 06:32:54;;;;;;;28.73;13.13;;;;;;;;;;4930734;28;20490;-59
2022/02/14 06:35:20;;;;;;;34.10;14.07;;;;;;;;;;4930445;28;20034;-59
2022/02/14 06:37:46;;;;;;;34.60;14.43;;;;;;;;;;4930499;28;20470;-59
2022/02/14 06:40:12;;;;;;;34.40;14.10;;;;;;;;;;4930351;28;20429;-59
2022/02/14 06:42:38;;;;;;;29.92;11.98;;;;;;;;;;4929986;28;20121;-59
2022/02/14 06:45:03;;;;;;;33.47;13.70;;;;;;;;;;4931467;28;20052;-58
2022/02/14 06:47:29;;;;;;;34.13;13.80;;;;;;;;;;4930611;28;20318;-59
2022/02/14 06:49:54;;;;;;;38.95;15.52;;;;;;;;;;4930280;28;20323;-59
2022/02/14 06:52:19;;;;;;;37.33;15.52;;;;;;;;;;4931360;28;20337;-59
2022/02/14 06:54:45;;;;;;;51.10;17.48;;;;;;;;;;4930212;28;20069;-59
2022/02/14 06:57:10;;;;;;;50.20;17.77;;;;;;;;;;4930071;28;20466;-59
2022/02/14 06:59:35;;;;;;;40.80;15.30;;;;;;;;;;4930930;28;20376;-59
2022/02/14 07:02:01;;;;;;;45.30;15.57;;;;;;;;;;4930058;28;20496;-60
2022/02/14 07:04:26;;;;;;;41.83;16.13;;;;;;;;;;4930468;28;20492;-59
2022/02/14 07:06:51;;;;;;;44.03;16.83;;;;;;;;;;4930222;28;20333;-61
2022/02/14 07:09:17;;;;;;;43.67;16.52;;;;;;;;;;4933208;28;20089;-59
2022/02/14 07:11:44;;;;;;;44.15;16.73;;;;;;;;;;4933887;28;20457;-59
2022/02/14 07:14:10;;;;;;;39.78;15.70;;;;;;;;;;4934223;28;20473;-63
2022/02/14 07:16:36;;;;;;;49.35;14.95;;;;;;;;;;4934059;28;20357;-60
2022/02/14 07:19:01;;;;;;;44.67;16.08;;;;;;;;;;4934004;28;20034;-61
2022/02/14 07:21:26;;;;;;;39.55;16.20;;;;;;;;;;4933691;28;20376;-61
2022/02/14 07:23:52;;;;;;;35.47;13.93;;;;;;;;;;4934218;28;20445;-60
2022/02/14 07:26:18;;;;;;;40.60;15.15;;;;;;;;;;4934605;28;20057;-61
2022/02/14 07:28:43;;;;;;;39.17;14.75;;;;;;;;;;4933871;28;20484;-61
2022/02/14 07:31:09;;;;;;;39.70;15.80;;;;;;;;;;4933586;28;20104;-61
2022/02/14 07:33:34;;;;;;;40.40;15.35;;;;;;;;;;4934454;28;20026;-61
2022/02/14 07:35:59;;;;;;;40.33;15.75;;;;;;;;;;4933207;28;20364;-61
2022/02/14 07:38:25;;;;;;;36.17;14.38;;;;;;;;;;4933629;28;20461;-61
2022/02/14 07:40:50;;;;;;;40.03;13.52;;;;;;;;;;4934199;28;20322;-60
2022/02/14 07:43:15;;;;;;;34.58;14.55;;;;;;;;;;4933176;28;20388;-61
2022/02/14 07:45:42;;;;;;;43.45;15.60;;;;;;;;;;4933922;28;20369;-60
2022/02/14 07:48:08;;;;;;;38.45;14.38;;;;;;;;;;4933629;28;20508;-61
2022/02/14 07:50:33;;;;;;;36.00;13.68;;;;;;;;;;4933893;28;20332;-60
2022/02/14 07:52:59;;;;;;;41.90;15.43;;;;;;;;;;4933269;28;20320;-60
2022/02/14 07:55:24;;;;;;;34.25;14.30;;;;;;;;;;4934405;28;20491;-60
2022/02/14 07:57:49;;;;;;;38.60;14.32;;;;;;;;;;4933865;28;20429;-60
2022/02/14 08:00:16;;;;;;;34.97;14.43;;;;;;;;;;4933985;28;20381;-61
2022/02/14 08:02:41;;;;;;;36.22;14.30;;;;;;;;;;4932778;28;20541;-60
2022/02/14 08:05:07;;;;;;;37.28;13.60;;;;;;;;;;4933065;28;20344;-60
2022/02/14 08:07:33;;;;;;;33.38;13.38;;;;;;;;;;4933777;28;20421;-60
2022/02/14 08:09:58;;;;;;;37.95;16.58;;;;;;;;;;4933076;28;20489;-61
2022/02/14 08:12:24;;;;;;;39.03;15.32;;;;;;;;;;4933896;28;20389;-60
2022/02/14 08:14:50;;;;;;;38.97;14.75;;;;;;;;;;4932968;28;20362;-61
2022/02/14 08:17:16;;;;;;;27.70;12.80;;;;;;;;;;4932932;28;20456;-61
2022/02/14 08:19:42;;;;;;;35.38;14.95;;;;;;;;;;4932723;28;20493;-60
2022/02/14 08:22:07;;;;;;;33.75;13.70;;;;;;;;;;4933418;28;20388;-61
2022/02/14 08:24:33;;;;;;;35.13;13.48;;;;;;;;;;4933911;28;20488;-61
2022/02/14 08:26:59;;;;;;;36.03;14.32;;;;;;;;;;4933399;28;20101;-61
2022/02/14 08:29:26;;;;;;;32.88;14.30;;;;;;;;;;4933904;28;20449;-61
2022/02/14 08:31:52;;;;;;;35.63;13.52;;;;;;;;;;4933425;28;20481;-60
2022/02/14 08:34:17;;;;;;;36.67;14.30;;;;;;;;;;4932961;28;20453;-61
2022/02/14 08:36:43;;;;;;;36.10;13.00;;;;;;;;;;4932476;28;20405;-60
2022/02/14 08:39:08;;;;;;;32.75;13.48;;;;;;;;;;4932237;28;20372;-61
2022/02/14 08:41:34;;;;;;;31.92;13.23;;;;;;;;;;4932499;28;20342;-61
2022/02/14 08:43:59;;;;;;;31.58;13.23;;;;;;;;;;4931843;28;20382;-61
2022/02/14 08:46:25;;;;;;;38.33;14.77;;;;;;;;;;4932449;28;20364;-61
2022/02/14 08:48:52;;;;;;;32.53;13.57;;;;;;;;;;4932745;28;20356;-61
2022/02/14 08:51:18;;;;;;;31.70;12.80;;;;;;;;;;4932369;28;20417;-60
2022/02/14 08:53:48;;;;;;;32.45;13.55;;;;;;;;;;4932152;28;20348;-60
2022/02/14 08:56:13;;;;;;;30.80;13.40;;;;;;;;;;4933031;28;20441;-60
2022/02/14 08:58:39;;;;;;;29.67;12.80;;;;;;;;;;4933036;28;20591;-61
2022/02/14 09:01:05;;;;;;;28.77;12.07;;;;;;;;;;4932334;28;20473;-61
2022/02/14 09:03:30;;;;;;;34.58;13.27;;;;;;;;;;4932134;28;20401;-61
2022/02/14 09:05:56;;;;;;;30.38;12.93;;;;;;;;;;4932764;28;20030;-61
2022/02/14 09:08:24;;;;;;;29.27;11.98;;;;;;;;;;4931877;28;20423;-61
2022/02/14 09:10:49;;;;;;;38.00;14.73;;;;;;;;;;4932779;28;20548;-61
2022/02/14 09:13:15;;;;;;;26.02;11.82;;;;;;;;;;4931828;28;20499;-61
2022/02/14 09:15:40;;;;;;;29.67;12.75;;;;;;;;;;4931366;28;20389;-61
2022/02/14 09:18:05;;;;;;;29.25;11.45;;;;;;;;;;4931969;28;20385;-60
2022/02/14 09:20:31;;;;;;;23.42;11.80;;;;;;;;;;4932014;28;20375;-61
2022/02/14 09:22:56;;;;;;;33.33;12.98;;;;;;;;;;4932784;28;20101;-61
2022/02/14 09:25:22;;;;;;;30.75;12.93;;;;;;;;;;4931382;28;20437;-61
2022/02/14 09:27:48;;;;;;;26.88;11.18;;;;;;;;;;4931917;28;20441;-61
2022/02/14 09:30:13;;;;;;;28.65;11.18;;;;;;;;;;4931275;28;20456;-61
2022/02/14 09:32:38;;;;;;;29.48;11.82;;;;;;;;;;4931003;28;20377;-60
2022/02/14 09:35:05;;;;;;;30.77;12.20;;;;;;;;;;4932738;28;20049;-61
2022/02/14 09:37:31;;;;;;;33.45;12.95;;;;;;;;;;4931265;28;20536;-61
2022/02/14 09:39:57;;;;;;;32.50;12.68;;;;;;;;;;4931581;28;20365;-60
2022/02/14 09:42:22;;;;;;;25.58;11.32;;;;;;;;;;4931358;28;20380;-61
2022/02/14 09:44:48;;;;;;;31.73;10.85;;;;;;;;;;4931794;28;20424;-61
2022/02/14 09:47:14;;;;;;;25.75;11.10;;;;;;;;;;4930919;28;20421;-60
2022/02/14 09:49:41;;;;;;;31.75;12.15;;;;;;;;;;4932468;28;20428;-61
2022/02/14 09:52:06;;;;;;;28.23;11.85;;;;;;;;;;4931412;28;20314;-61
2022/02/14 09:54:32;;;;;;;27.23;11.07;;;;;;;;;;4932186;28;20377;-61
2022/02/14 09:56:57;;;;;;;33.90;12.52;;;;;;;;;;4930933;28;20472;-62
2022/02/14 09:59:23;;;;;;;29.35;11.82;;;;;;;;;;4931794;28;20342;-61
2022/02/14 10:01:48;;;;;;;25.80;11.15;;;;;;;;;;4930823;28;20437;-60
2022/02/14 10:04:13;;;;;;;28.25;10.98;;;;;;;;;;4930893;28;20369;-60
2022/02/14 10:06:40;;;;;;;25.67;11.43;;;;;;;;;;4930637;28;20092;-60
2022/02/14 10:09:13;;;;;;;23.33;9.93;;;;;;;;;;4931837;28;20503;-61
2022/02/14 10:11:56;;;;;;;27.05;10.32;;;;;;;;;;4930654;28;20527;-60
2022/02/14 10:14:21;;;;;;;23.60;10.55;;;;;;;;;;4930625;28;20393;-61
2022/02/14 10:17:01;;;;;;;25.63;11.57;;;;;;;;;;4930898;28;20128;-61
2022/02/14 10:19:27;;;;;;;25.88;10.35;;;;;;;;;;4930403;28;20460;-61
2022/02/14 10:21:54;;;;;;;24.73;10.95;;;;;;;;;;4930861;28;20540;-61
2022/02/14 10:24:20;;;;;;;25.60;11.25;;;;;;;;;;4930517;28;20372;-60
2022/02/14 10:26:49;;;;;;;20.55;9.13;;;;;;;;;;4930912;28;20022;-61
2022/02/14 10:29:27;;;;;;;26.98;9.55;;;;;;;;;;4930454;28;20451;-61
2022/02/14 10:32:05;;;;;;;22.23;10.18;;;;;;;;;;4931229;28;20369;-62
2022/02/14 10:34:35;;;;;;;20.98;9.18;;;;;;;;;;4930594;28;20042;-60
2022/02/14 10:37:00;;;;;;;23.38;9.75;;;;;;;;;;4925639;28;20470;-61
2022/02/14 10:39:28;;;;;;;21.42;8.93;;;;;;;;;;4911515;28;20382;-60
2022/02/14 10:42:07;;;;;;;19.15;8.80;;;;;;;;;;4911946;28;20354;-62
2022/02/14 10:47:21;;;;;;;22.55;10.05;;;;;;;;;;4912590;28;20101;-61
2022/02/14 10:50:19;;;;;;;20.38;9.43;;;;;;;;;;4911745;28;20371;-60
2022/02/14 10:52:53;;;;;;;17.00;7.88;;;;;;;;;;4926208;28;20393;-61
2022/02/14 10:55:26;;;;;;;19.38;8.95;;;;;;;;;;4911093;28;20469;-61
2022/02/14 10:57:52;;;;;;;17.02;8.20;;;;;;;;;;4912601;28;20481;-61
2022/02/14 11:00:20;;;;;;;20.38;8.38;;;;;;;;;;4912161;28;20349;-61
2022/02/14 11:02:48;;;;;;;18.90;8.57;;;;;;;;;;4911436;28;20381;-60
2022/02/14 11:05:15;;;;;;;19.52;8.65;;;;;;;;;;4911599;28;20173;-61
2022/02/14 11:07:41;;;;;;;17.48;8.45;;;;;;;;;;4911394;28;20027;-61
2022/02/14 11:10:12;;;;;;;15.88;7.32;;;;;;;;;;4911486;28;20061;-61
2022/02/14 11:12:51;;;;;;;18.08;8.93;;;;;;;;;;4912469;28;20366;-61
2022/02/14 11:15:17;;;;;;;15.65;7.13;;;;;;;;;;4911431;28;20442;-61
2022/02/14 11:17:48;;;;;;;15.52;7.72;;;;;;;;;;4911515;28;20480;-61
2022/02/14 11:20:14;;;;;;;14.70;7.50;;;;;;;;;;4911779;28;20528;-60
2022/02/14 11:22:43;;;;;;;20.25;7.38;;;;;;;;;;4912225;28;20093;-61
2022/02/14 11:25:17;;;;;;;13.40;7.32;;;;;;;;;;4911403;28;20117;-61
2022/02/14 11:28:09;;;;;;;16.55;7.20;;;;;;;;;;4911917;28;20418;-60
2022/02/14 11:30:35;;;;;;;13.20;7.03;;;;;;;;;;4899973;28;20505;-61
2022/02/14 11:33:09;;;;;;;16.23;7.93;;;;;;;;;;4911325;28;20454;-61
2022/02/14 11:35:35;;;;;;;22.83;7.82;;;;;;;;;;4911103;28;20584;-61
2022/02/14 11:38:01;;;;;;;15.57;6.63;;;;;;;;;;4911568;28;20388;-61
2022/02/14 11:40:41;;;;;;;16.65;6.70;;;;;;;;;;4911087;28;20457;-61
2022/02/14 11:43:24;;;;;;;13.70;6.65;;;;;;;;;;4911244;28;20469;-61
2022/02/14 11:46:08;;;;;;;12.70;6.63;;;;;;;;;;4912733;28;20377;-61
2022/02/14 11:48:33;;;;;;;16.58;7.32;;;;;;;;;;4911061;28;20442;-61
2022/02/14 11:51:08;;;;;;;16.08;7.35;;;;;;;;;;4913175;28;20418;-61
2022/02/14 11:53:45;;;;;;;19.80;8.02;;;;;;;;;;4910793;28;20458;-60
2022/02/14 11:56:22;;;;;;;14.40;7.30;;;;;;;;;;4914302;28;20410;-61
2022/02/14 11:59:15;;;;;;;18.50;7.93;;;;;;;;;;4914461;28;20112;-61
2022/02/14 12:01:50;;;;;;;13.35;6.93;;;;;;;;;;4914384;28;20104;-61
2022/02/14 12:04:36;;;;;;;15.32;7.55;;;;;;;;;;4915172;28;20341;-61
2022/02/14 12:07:26;;;;;;;14.52;6.38;;;;;;;;;;4914312;28;20453;-61
2022/02/14 12:10:12;;;;;;;17.00;8.10;;;;;;;;;;4914382;28;20031;-63
2022/02/14 12:12:43;;;;;;;15.25;7.60;;;;;;;;;;4884058;28;20563;-60
2022/02/14 12:15:17;;;;;;;12.40;6.53;;;;;;;;;;4914213;28;20346;-61
2022/02/14 12:20:34;;;;;;;14.27;6.68;;;;;;;;;;4914657;28;20695;-60
2022/02/14 12:23:00;;;;;;;19.35;6.60;;;;;;;;;;4914090;28;20053;-61
2022/02/14 12:25:25;;;;;;;16.63;6.75;;;;;;;;;;4914449;28;20413;-61
2022/02/14 12:27:51;;;;;;;15.45;7.20;;;;;;;;;;4914448;28;20081;-61
2022/02/14 12:30:21;;;;;;;12.90;6.72;;;;;;;;;;4913839;28;20595;-61
2022/02/14 12:33:03;;;;;;;12.52;6.60;;;;;;;;;;4914644;28;20386;-61
2022/02/14 12:35:49;;;;;;;15.02;6.07;;;;;;;;;;4913713;28;20505;-60
2022/02/14 12:38:15;;;;;;;13.98;6.97;;;;;;;;;;4932355;28;20380;-61
2022/02/14 12:40:52;;;;;;;13.52;6.88;;;;;;;;;;4934054;28;20048;-60
2022/02/14 12:43:34;;;;;;;14.20;6.85;;;;;;;;;;4933140;28;20372;-61
2022/02/14 12:46:02;;;;;;;15.43;7.68;;;;;;;;;;4933308;28;20448;-62
2022/02/14 12:48:42;;;;;;;14.63;7.03;;;;;;;;;;4933637;28;20345;-61
2022/02/14 12:51:11;;;;;;;12.65;5.97;;;;;;;;;;4934030;28;20323;-61
2022/02/14 12:53:39;;;;;;;20.73;6.95;;;;;;;;;;4934006;28;20419;-61
2022/02/14 12:56:20;;;;;;;13.65;6.05;;;;;;;;;;4932822;28;20558;-61
2022/02/14 12:59:05;;;;;;;12.52;6.15;;;;;;;;;;4933403;28;20057;-61
2022/02/14 13:01:33;;;;;;;13.98;6.78;;;;;;;;;;4932448;28;20487;-61
2022/02/14 13:04:10;;;;;;;12.82;5.75;;;;;;;;;;4932592;28;20433;-60
2022/02/14 13:06:35;;;;;;;16.85;6.57;;;;;;;;;;4931207;28;20433;-61
2022/02/14 13:09:02;;;;;;;13.43;5.65;;;;;;;;;;4932505;28;20408;-61
2022/02/14 13:11:28;;;;;;;14.55;6.45;;;;;;;;;;4933807;28;20408;-61
2022/02/14 13:13:53;;;;;;;12.25;5.88;;;;;;;;;;4932727;28;20415;-61
2022/02/14 13:16:26;;;;;;;13.25;6.25;;;;;;;;;;4914744;28;20453;-61
2022/02/14 13:18:51;;;;;;;10.88;5.35;;;;;;;;;;4932015;28;20341;-61
2022/02/14 13:21:21;;;;;;;11.35;5.93;;;;;;;;;;4932012;28;20389;-61
2022/02/14 13:23:47;;;;;;;14.88;7.10;;;;;;;;;;4931828;28;20303;-61
2022/02/14 13:26:21;;;;;;;14.13;6.95;;;;;;;;;;4932081;28;20388;-60
2022/02/14 13:28:46;;;;;;;11.77;6.28;;;;;;;;;;4931669;28;20053;-61
2022/02/14 13:31:19;;;;;;;11.63;6.30;;;;;;;;;;4932166;28;20453;-61
2022/02/14 13:33:50;;;;;;;13.20;6.25;;;;;;;;;;4932029;28;20053;-61
2022/02/14 13:36:15;;;;;;;10.68;5.80;;;;;;;;;;4931760;28;20453;-62
2022/02/14 13:38:42;;;;;;;10.05;5.03;;;;;;;;;;4931592;28;20454;-61
2022/02/14 13:41:08;;;;;;;14.68;5.80;;;;;;;;;;4931482;28;20057;-61
2022/02/14 13:43:38;;;;;;;10.20;5.35;;;;;;;;;;4932065;28;20496;-61
2022/02/14 13:46:03;;;;;;;;;;;;;;;;;;4932066;28;20437;-61
2022/02/14 13:48:30;;;;;;;12.18;6.22;;;;;;;;;;4931616;28;20256;-61
2022/02/14 13:51:00;;;;;;;11.25;5.93;;;;;;;;;;4931796;28;20472;-61
2022/02/14 13:53:26;;;;;;;17.02;6.53;;;;;;;;;;4931407;28;20429;-60
2022/02/14 13:56:06;;;;;;;10.02;5.22;;;;;;;;;;4932777;28;20333;-61
2022/02/14 13:58:31;;;;;;;;;;;;;;;;;;4932083;28;20468;-61
2022/02/14 14:00:57;;;;;;;8.90;5.40;;;;;;;;;;4931659;28;20387;-60
2022/02/14 14:03:26;;;;;;;15.48;6.35;;;;;;;;;;4931768;28;20026;-61
2022/02/14 14:05:52;;;;;;;10.93;4.70;;;;;;;;;;4931540;28;20393;-61
2022/02/14 14:08:37;;;;;;;10.43;5.50;;;;;;;;;;4914196;28;20340;-62
2022/02/14 14:11:03;;;;;;;12.95;5.30;;;;;;;;;;4931303;28;20500;-61
2022/02/14 14:13:43;;;;;;;8.55;5.07;;;;;;;;;;4932238;28;20411;-61
2022/02/14 14:16:09;;;;;;;10.52;5.40;;;;;;;;;;4931007;28;20445;-61
2022/02/14 14:18:35;;;;;;;11.38;5.22;;;;;;;;;;4930750;28;20515;-60
2022/02/14 14:21:08;;;;;;;9.82;5.80;;;;;;;;;;4931638;28;20603;-60
2022/02/14 14:23:36;;;;;;;11.02;5.75;;;;;;;;;;4932507;28;20496;-61
2022/02/14 14:26:02;;;;;;;9.63;5.72;;;;;;;;;;4931201;28;20417;-61
2022/02/14 14:28:27;;;;;;;10.15;6.13;;;;;;;;;;4931208;28;20093;-61
2022/02/14 14:30:52;;;;;;;12.50;6.18;;;;;;;;;;4932764;28;20447;-60